createdAt,value
2022-11-22T00:00:19.020Z,98213.25
2022-11-22T00:02:46.553Z,98215.59
2022-11-22T00:05:13.646Z,98212.00
2022-11-22T00:07:41.006Z,98213.84
2022-11-22T00:10:09.450Z,98213.75
2022-11-22T00:12:36.565Z,98202.56
2022-11-22T00:15:04.032Z,98205.22
2022-11-22T00:17:31.797Z,98214.09
2022-11-22T00:19:58.923Z,98218.56
2022-11-22T00:22:26.183Z,98223.47
2022-11-22T00:24:54.098Z,98215.81
2022-11-22T00:27:21.215Z,98214.91
2022-11-22T00:29:48.332Z,98206.34
2022-11-22T00:32:15.902Z,98202.03
2022-11-22T00:34:43.020Z,98200.28
2022-11-22T00:37:10.142Z,98207.88
2022-11-22T00:39:37.514Z,98198.56
2022-11-22T00:42:04.616Z,98200.66
2022-11-22T00:44:31.709Z,98195.19
2022-11-22T00:46:59.075Z,98192.00
2022-11-22T00:49:26.183Z,98204.41
2022-11-22T00:51:53.328Z,98199.44
2022-11-22T00:54:20.793Z,98213.69
2022-11-22T00:56:47.899Z,98212.88
2022-11-22T00:59:15.009Z,98213.81
2022-11-22T01:01:42.495Z,98216.22
2022-11-22T01:04:09.845Z,98218.34
2022-11-22T01:06:36.959Z,98213.66
2022-11-22T01:09:04.318Z,98214.41
2022-11-22T01:11:31.443Z,98212.50
2022-11-22T01:13:58.529Z,98214.47
2022-11-22T01:16:25.920Z,98210.94
2022-11-22T01:18:53.021Z,98198.88
2022-11-22T01:21:20.132Z,98203.72
2022-11-22T01:23:47.506Z,98191.09
2022-11-22T01:26:14.620Z,98191.44
2022-11-22T01:28:41.723Z,98190.12
2022-11-22T01:31:09.220Z,98188.72
2022-11-22T01:33:36.322Z,98191.88
2022-11-22T01:36:03.563Z,98198.12
2022-11-22T01:38:30.959Z,98189.81
2022-11-22T01:40:58.081Z,98186.47
2022-11-22T01:43:25.919Z,98193.97
2022-11-22T01:45:57.060Z,98199.12
2022-11-22T01:48:39.519Z,98195.47
2022-11-22T01:51:15.335Z,98190.84
2022-11-22T01:53:42.440Z,98194.37
2022-11-22T01:56:10.714Z,98200.13
2022-11-22T01:58:37.939Z,98199.03
2022-11-22T02:01:05.230Z,98191.44
2022-11-22T02:03:33.127Z,98186.47
2022-11-22T02:06:00.520Z,98189.72
2022-11-22T02:08:30.717Z,98185.94
2022-11-22T02:10:57.823Z,98184.66
2022-11-22T02:13:25.184Z,98184.16
2022-11-22T02:15:52.300Z,98176.44
2022-11-22T02:18:19.397Z,98167.09
2022-11-22T02:20:46.784Z,98169.09
2022-11-22T02:23:19.732Z,98168.12
2022-11-22T02:25:54.693Z,98172.13
2022-11-22T02:28:21.805Z,98165.13
2022-11-22T02:30:49.232Z,98166.78
2022-11-22T02:33:16.335Z,98164.97
2022-11-22T02:35:43.587Z,98167.53
2022-11-22T02:38:12.387Z,98156.28
2022-11-22T02:40:43.714Z,98161.94
2022-11-22T02:43:12.047Z,98163.53
2022-11-22T02:45:39.241Z,98159.91
2022-11-22T02:48:13.919Z,98157.63
2022-11-22T02:50:41.724Z,98157.53
2022-11-22T02:53:09.255Z,98159.38
2022-11-22T02:55:36.490Z,98149.94
2022-11-22T02:58:05.914Z,98159.53
2022-11-22T03:00:33.708Z,98160.22
2022-11-22T03:03:00.851Z,98154.06
2022-11-22T03:05:28.263Z,98151.94
2022-11-22T03:07:55.540Z,98153.03
2022-11-22T03:10:22.757Z,98161.94
2022-11-22T03:12:50.188Z,98147.25
2022-11-22T03:15:17.472Z,98143.41
2022-11-22T03:17:44.578Z,98156.28
2022-11-22T03:20:12.372Z,98152.38
2022-11-22T03:22:39.668Z,98151.78
2022-11-22T03:25:06.941Z,98156.19
2022-11-22T03:27:34.221Z,98143.31
2022-11-22T03:30:01.449Z,98145.09
2022-11-22T03:32:28.623Z,98151.06
2022-11-22T03:34:55.989Z,98154.06
2022-11-22T03:37:23.158Z,98154.72
2022-11-22T03:39:50.315Z,98146.34
2022-11-22T03:42:21.458Z,98146.19
2022-11-22T03:44:49.355Z,98147.44
2022-11-22T03:47:16.525Z,98132.97
2022-11-22T03:49:44.265Z,98132.97
2022-11-22T03:52:11.636Z,98132.13
2022-11-22T03:54:38.802Z,98142.44
2022-11-22T03:57:06.247Z,98134.34
2022-11-22T03:59:33.597Z,98141.34
2022-11-22T04:02:00.852Z,98126.94
2022-11-22T04:04:28.426Z,98130.91
2022-11-22T04:06:55.571Z,98131.25
2022-11-22T04:09:22.922Z,98124.38
2022-11-22T04:11:50.601Z,98133.75
2022-11-22T04:14:36.190Z,98119.19
2022-11-22T04:17:03.853Z,98121.81
2022-11-22T04:19:31.116Z,98128.13
2022-11-22T04:21:58.405Z,98130.69
2022-11-22T04:24:44.507Z,98136.31
2022-11-22T04:27:11.619Z,98134.31
2022-11-22T04:29:39.392Z,98125.44
2022-11-22T04:32:25.503Z,98123.66
2022-11-22T04:34:53.325Z,98132.25
2022-11-22T04:37:20.445Z,98123.28
2022-11-22T04:39:47.592Z,98125.06
2022-11-22T04:42:33.981Z,98130.31
2022-11-22T04:45:01.078Z,98126.78
2022-11-22T04:48:06.937Z,98122.72
2022-11-22T04:50:53.013Z,98118.66
2022-11-22T04:53:20.662Z,98120.81
2022-11-22T04:55:47.840Z,98124.06
2022-11-22T04:58:15.164Z,98133.69
2022-11-22T05:00:42.992Z,98129.31
2022-11-22T05:03:10.293Z,98132.28
2022-11-22T05:05:37.966Z,98140.97
2022-11-22T05:08:05.830Z,98141.03
2022-11-22T05:10:53.062Z,98139.25
2022-11-22T05:13:22.175Z,98128.00
2022-11-22T05:15:51.349Z,98145.50
2022-11-22T05:18:21.139Z,98136.75
2022-11-22T05:20:48.537Z,98140.41
2022-11-22T05:23:34.263Z,98128.78
2022-11-22T05:26:01.770Z,98154.66
2022-11-22T05:28:29.565Z,98134.00
2022-11-22T05:30:56.776Z,98156.53
2022-11-22T05:33:24.260Z,98146.56
2022-11-22T05:35:51.426Z,98147.19
2022-11-22T05:38:19.814Z,98149.47
2022-11-22T05:40:47.276Z,98139.00
2022-11-22T05:43:14.378Z,98132.38
2022-11-22T05:45:41.658Z,98113.38
2022-11-22T05:48:19.832Z,98130.25
2022-11-22T05:50:46.935Z,98135.88
2022-11-22T05:53:14.428Z,98147.72
2022-11-22T05:55:41.537Z,98151.22
2022-11-22T05:58:08.648Z,98162.41
2022-11-22T06:00:36.000Z,98149.41
2022-11-22T06:03:03.856Z,98158.25
2022-11-22T06:05:31.481Z,98168.16
2022-11-22T06:08:00.008Z,98152.28
2022-11-22T06:10:27.643Z,98166.25
2022-11-22T06:12:55.169Z,98164.44
2022-11-22T06:15:22.260Z,98174.16
2022-11-22T06:17:49.712Z,98184.25
2022-11-22T06:20:16.907Z,98182.31
2022-11-22T06:22:44.042Z,98179.81
2022-11-22T06:25:11.472Z,98181.94
2022-11-22T06:27:38.608Z,98172.53
2022-11-22T06:30:06.394Z,98160.19
2022-11-22T06:32:34.271Z,98164.13
2022-11-22T06:35:02.034Z,98156.50
2022-11-22T06:37:29.389Z,98156.47
2022-11-22T06:39:56.893Z,98165.44
2022-11-22T06:42:24.134Z,98171.91
2022-11-22T06:44:51.969Z,98164.56
2022-11-22T06:47:19.411Z,98167.94
2022-11-22T06:49:46.497Z,98172.81
2022-11-22T06:52:13.793Z,98178.69
2022-11-22T06:54:41.179Z,98178.94
2022-11-22T06:57:08.452Z,98184.38
2022-11-22T06:59:35.742Z,98168.28
2022-11-22T07:02:06.650Z,98149.72
2022-11-22T07:04:34.236Z,98162.03
2022-11-22T07:07:01.327Z,98165.97
2022-11-22T07:09:28.820Z,98168.81
2022-11-22T07:11:56.238Z,98168.62
2022-11-22T07:14:23.511Z,98168.66
2022-11-22T07:16:50.873Z,98163.53
2022-11-22T07:19:18.003Z,98156.47
2022-11-22T07:21:45.101Z,98167.50
2022-11-22T07:24:12.760Z,98151.50
2022-11-22T07:26:39.989Z,98170.34
2022-11-22T07:29:07.097Z,98165.44
2022-11-22T07:31:35.226Z,98174.13
2022-11-22T07:34:02.418Z,98175.44
2022-11-22T07:36:30.536Z,98178.41
2022-11-22T07:38:58.078Z,98179.53
2022-11-22T07:41:25.193Z,98167.91
2022-11-22T07:43:53.130Z,98168.62
2022-11-22T07:46:21.787Z,98161.28
2022-11-22T07:48:49.705Z,98164.19
2022-11-22T07:51:17.204Z,98161.81
2022-11-22T07:53:45.625Z,98170.13
2022-11-22T07:56:12.758Z,98149.66
2022-11-22T07:58:40.081Z,98150.34
2022-11-22T08:01:08.444Z,98153.84
2022-11-22T08:03:36.080Z,98155.22
2022-11-22T08:06:03.925Z,98162.28
2022-11-22T08:08:31.057Z,98147.16
2022-11-22T08:10:58.464Z,98159.88
2022-11-22T08:13:25.666Z,98149.34
2022-11-22T08:15:54.602Z,98159.22
2022-11-22T08:18:22.508Z,98147.56
2022-11-22T08:20:49.630Z,98140.41
2022-11-22T08:23:16.888Z,98149.53
2022-11-22T08:25:44.249Z,98140.87
2022-11-22T08:28:11.546Z,98150.88
2022-11-22T08:30:38.650Z,98147.47
2022-11-22T08:33:06.029Z,98157.34
2022-11-22T08:35:33.154Z,98152.06
2022-11-22T08:38:00.466Z,98162.88
2022-11-22T08:40:27.994Z,98157.53
2022-11-22T08:42:56.314Z,98151.16
2022-11-22T08:45:23.604Z,98157.91
2022-11-22T08:47:52.516Z,98145.09
2022-11-22T08:50:19.672Z,98150.38
2022-11-22T08:52:46.771Z,98155.09
2022-11-22T08:55:14.138Z,98154.41
2022-11-22T08:57:41.252Z,98154.69
2022-11-22T09:00:08.932Z,98156.22
2022-11-22T09:02:36.334Z,98161.41
2022-11-22T09:05:03.655Z,98153.38
2022-11-22T09:10:18.251Z,98142.50
2022-11-22T09:12:45.855Z,98155.41
2022-11-22T09:15:13.146Z,98141.09
2022-11-22T09:17:40.505Z,98134.84
2022-11-22T09:20:07.944Z,98135.16
2022-11-22T09:22:35.051Z,98149.28
2022-11-22T09:25:02.691Z,98132.44
2022-11-22T09:27:29.805Z,98140.19
2022-11-22T09:29:57.429Z,98128.00
2022-11-22T09:32:28.201Z,98126.28
2022-11-22T09:34:59.761Z,98138.56
2022-11-22T09:37:27.135Z,98126.78
2022-11-22T09:39:54.278Z,98130.31
2022-11-22T09:42:33.311Z,98107.81
2022-11-22T09:45:16.732Z,98114.19
2022-11-22T09:47:55.940Z,98098.38
2022-11-22T09:50:29.623Z,98101.13
2022-11-22T09:52:59.090Z,98094.00
2022-11-22T09:55:32.887Z,98092.00
2022-11-22T09:58:22.954Z,98103.31
2022-11-22T10:00:52.438Z,98090.91
2022-11-22T10:03:26.413Z,98094.16
2022-11-22T10:05:54.298Z,98083.03
2022-11-22T10:08:47.707Z,98079.50
2022-11-22T10:11:37.768Z,98082.00
2022-11-22T10:14:09.552Z,98082.44
2022-11-22T10:16:41.994Z,98068.53
2022-11-22T10:19:15.057Z,98071.44
2022-11-22T10:21:42.570Z,98069.50
2022-11-22T10:24:12.800Z,98070.78
2022-11-22T10:26:39.946Z,98064.22
2022-11-22T10:29:16.392Z,98061.47
2022-11-22T10:31:43.681Z,98062.63
2022-11-22T10:34:19.403Z,98056.34
2022-11-22T10:36:50.040Z,98036.66
2022-11-22T10:39:34.625Z,98042.50
2022-11-22T10:42:23.915Z,98035.22
2022-11-22T10:45:09.812Z,98045.34
2022-11-22T10:47:43.216Z,98030.16
2022-11-22T10:50:16.276Z,98024.28
2022-11-22T10:52:52.616Z,98023.41
2022-11-22T10:55:41.607Z,98014.16
2022-11-22T10:58:14.320Z,98020.41
2022-11-22T11:00:44.105Z,98007.31
2022-11-22T11:03:11.466Z,97999.97
2022-11-22T11:06:21.076Z,97987.53
2022-11-22T11:09:02.814Z,97987.53
2022-11-22T11:11:21.790Z,97982.53
2022-11-22T11:14:00.041Z,97979.97
2022-11-22T11:16:29.087Z,97979.06
2022-11-22T11:18:56.677Z,97984.38
2022-11-22T11:21:23.793Z,97980.72
2022-11-22T11:23:51.086Z,97977.12
2022-11-22T11:26:19.053Z,97987.69
2022-11-22T11:28:46.212Z,97974.88
2022-11-22T11:31:13.744Z,97958.72
2022-11-22T11:33:41.437Z,97963.06
2022-11-22T11:36:22.044Z,97957.03
2022-11-22T11:38:54.415Z,97954.31
2022-11-22T11:41:31.626Z,97945.88
2022-11-22T11:43:59.736Z,97938.19
2022-11-22T11:46:27.691Z,97942.53
2022-11-22T11:48:55.543Z,97944.91
2022-11-22T11:51:29.872Z,97938.91
2022-11-22T11:53:58.830Z,97927.78
2022-11-22T11:56:29.392Z,97930.81
2022-11-22T11:58:57.106Z,97928.41
2022-11-22T12:01:24.408Z,97914.88
2022-11-22T12:03:53.535Z,97908.06
2022-11-22T12:06:20.679Z,97909.69
2022-11-22T12:08:47.916Z,97902.03
2022-11-22T12:11:17.674Z,97905.31
2022-11-22T12:14:18.559Z,97905.34
2022-11-22T12:16:41.520Z,97893.28
2022-11-22T12:19:23.211Z,97877.91
2022-11-22T12:22:02.947Z,97876.19
2022-11-22T12:27:17.357Z,97872.75
2022-11-22T12:29:44.641Z,97880.47
2022-11-22T12:32:13.273Z,97876.16
2022-11-22T12:35:00.722Z,97868.41
2022-11-22T12:37:31.046Z,97866.66
2022-11-22T12:39:59.002Z,97869.28
2022-11-22T12:42:26.033Z,97860.69
2022-11-22T12:44:54.563Z,97843.44
2022-11-22T12:47:22.975Z,97854.56
2022-11-22T12:49:56.921Z,97857.19
2022-11-22T12:52:25.713Z,97852.88
2022-11-22T12:54:56.232Z,97842.56
2022-11-22T12:57:25.529Z,97834.88
2022-11-22T12:59:52.837Z,97836.47
2022-11-22T13:02:32.351Z,97844.22
2022-11-22T13:05:15.100Z,97842.50
2022-11-22T13:07:56.880Z,97840.81
2022-11-22T13:10:37.883Z,97854.53
2022-11-22T13:13:05.204Z,97851.00
2022-11-22T13:15:33.269Z,97839.84
2022-11-22T13:18:00.880Z,97845.03
2022-11-22T13:20:29.524Z,97840.53
2022-11-22T13:23:04.969Z,97850.09
2022-11-22T13:25:32.317Z,97861.06
2022-11-22T13:28:00.845Z,97860.84
2022-11-22T13:30:29.246Z,97857.31
2022-11-22T13:33:00.098Z,97846.41
2022-11-22T13:35:30.519Z,97848.28
2022-11-22T13:37:58.672Z,97853.34
2022-11-22T13:40:27.479Z,97854.22
2022-11-22T13:43:17.937Z,97847.56
2022-11-22T13:45:49.463Z,97850.09
2022-11-22T13:48:37.024Z,97856.09
2022-11-22T13:51:04.434Z,97837.13
2022-11-22T13:53:36.900Z,97843.13
2022-11-22T13:56:13.336Z,97835.38
2022-11-22T13:58:40.685Z,97842.22
2022-11-22T14:01:26.720Z,97830.44
2022-11-22T14:03:54.159Z,97842.22
2022-11-22T14:06:21.172Z,97831.13
2022-11-22T14:08:49.153Z,97840.53
2022-11-22T14:11:27.973Z,97837.22
2022-11-22T14:14:01.068Z,97837.28
2022-11-22T14:16:28.363Z,97832.09
2022-11-22T14:19:00.126Z,97839.72
2022-11-22T14:21:46.159Z,97848.44
2022-11-22T14:24:13.886Z,97829.63
2022-11-22T14:26:54.801Z,97830.44
2022-11-22T14:29:37.961Z,97842.91
2022-11-22T14:32:12.646Z,97837.84
2022-11-22T14:34:59.778Z,97842.25
2022-11-22T14:37:29.561Z,97849.63
2022-11-22T14:40:09.039Z,97849.56
2022-11-22T14:42:36.311Z,97838.97
2022-11-22T14:45:24.053Z,97840.72
2022-11-22T14:47:51.115Z,97837.13
2022-11-22T14:50:24.630Z,97836.34
2022-11-22T14:52:51.733Z,97832.78
2022-11-22T14:55:20.754Z,97835.13
2022-11-22T14:57:48.752Z,97832.78
2022-11-22T15:00:18.966Z,97840.50
2022-11-22T15:02:46.287Z,97830.91
2022-11-22T15:09:10.193Z,97833.44
2022-11-22T15:09:29.492Z,97826.88
2022-11-22T15:11:17.061Z,97830.72
2022-11-22T15:13:50.619Z,97831.34
2022-11-22T15:59:40.731Z,97824.97
2022-11-22T16:02:20.698Z,97831.81
2022-11-22T16:04:48.715Z,97830.16
2022-11-22T16:07:39.940Z,97831.97
2022-11-22T16:10:14.893Z,97819.00
2022-11-22T16:12:42.076Z,97824.94
2022-11-22T16:15:28.777Z,97821.47
2022-11-22T16:18:15.379Z,97821.63
2022-11-22T16:20:43.231Z,97822.88
2022-11-22T16:23:10.250Z,97830.03
2022-11-22T16:25:38.334Z,97817.03
2022-11-22T16:28:26.203Z,97816.88
2022-11-22T16:30:53.798Z,97802.59
2022-11-22T16:33:21.746Z,97795.19
2022-11-22T16:35:59.333Z,97796.94
2022-11-22T16:38:27.295Z,97800.38
2022-11-22T16:40:56.271Z,97812.13
2022-11-22T16:43:24.786Z,97812.25
2022-11-22T16:45:52.660Z,97809.50
2022-11-22T16:48:31.983Z,97808.56
2022-11-22T16:51:07.150Z,97806.97
2022-11-22T16:53:37.021Z,97800.59
2022-11-22T16:56:04.891Z,97798.09
2022-11-22T16:58:32.147Z,97794.03
2022-11-22T17:00:59.440Z,97773.72
2022-11-22T17:03:27.387Z,97786.59
2022-11-22T17:05:54.742Z,97778.69
2022-11-22T17:08:22.118Z,97779.66
2022-11-22T17:10:50.987Z,97789.75
2022-11-22T17:13:19.791Z,97783.00
2022-11-22T17:15:47.406Z,97775.84
2022-11-22T17:18:14.907Z,97782.72
2022-11-22T17:20:42.218Z,97778.44
2022-11-22T17:23:20.341Z,97785.59
2022-11-22T17:25:48.669Z,97786.47
2022-11-22T17:28:17.115Z,97778.81
2022-11-22T17:30:44.777Z,97786.56
2022-11-22T17:33:12.345Z,97797.34
2022-11-22T17:35:39.772Z,97807.63
2022-11-22T17:38:07.760Z,97799.94
2022-11-22T17:40:35.796Z,97796.50
2022-11-22T17:43:03.768Z,97801.91
2022-11-22T17:45:36.747Z,97796.09
2022-11-22T17:48:04.904Z,97788.34
2022-11-22T17:50:32.172Z,97801.06
2022-11-22T17:52:59.260Z,97797.56
2022-11-22T17:55:42.657Z,97788.94
2022-11-22T17:58:14.576Z,97793.94
2022-11-22T18:00:42.417Z,97789.88
2022-11-22T18:03:11.403Z,97778.78
2022-11-22T18:05:39.623Z,97765.09
2022-11-22T18:08:07.684Z,97770.31
2022-11-22T18:10:35.478Z,97770.22
2022-11-22T18:13:20.683Z,97770.25
2022-11-22T18:15:54.004Z,97764.25
2022-11-22T18:18:54.455Z,97773.69
2022-11-22T18:21:17.198Z,97766.81
2022-11-22T18:23:48.721Z,97767.69
2022-11-22T18:29:40.741Z,97772.84
2022-11-22T18:31:54.973Z,97744.37
2022-11-22T18:34:23.091Z,97763.31
2022-11-22T18:36:56.256Z,97758.19
2022-11-22T18:39:30.599Z,97752.19
2022-11-22T18:42:01.506Z,97738.34
2022-11-22T18:44:34.746Z,97728.09
2022-11-22T18:47:02.385Z,97729.81
2022-11-22T18:49:30.799Z,97739.31
2022-11-22T18:51:58.436Z,97732.44
2022-11-22T18:54:26.680Z,97726.41
2022-11-22T18:56:54.891Z,97728.13
2022-11-22T18:59:23.739Z,97706.56
2022-11-22T19:01:51.648Z,97724.59
2022-11-22T19:04:19.550Z,97710.88
2022-11-22T19:06:48.995Z,97699.72
2022-11-22T19:09:16.526Z,97698.91
2022-11-22T19:11:44.070Z,97709.22
2022-11-22T19:14:12.797Z,97692.81
2022-11-22T19:16:41.229Z,97692.59
2022-11-22T19:19:11.104Z,97689.13
2022-11-22T19:21:38.690Z,97686.75
2022-11-22T19:24:06.599Z,97692.72
2022-11-22T19:26:34.920Z,97691.13
2022-11-22T19:29:04.053Z,97680.81
2022-11-22T19:31:31.925Z,97680.69
2022-11-22T19:34:01.021Z,97683.34
2022-11-22T19:36:33.400Z,97687.59
2022-11-22T19:39:05.941Z,97686.84
2022-11-22T19:41:33.899Z,97678.22
2022-11-22T19:44:01.998Z,97692.88
2022-11-22T19:46:30.265Z,97675.63
2022-11-22T19:48:58.218Z,97664.50
2022-11-22T19:51:26.135Z,97665.34
2022-11-22T19:53:54.199Z,97664.47
2022-11-22T19:56:27.137Z,97673.09
2022-11-22T19:59:04.813Z,97665.34
2022-11-22T20:01:36.404Z,97659.25
2022-11-22T20:04:05.064Z,97643.41
2022-11-22T20:06:33.692Z,97663.50
2022-11-22T20:09:04.962Z,97657.56
2022-11-22T20:11:32.593Z,97664.41
2022-11-22T20:14:00.443Z,97662.66
2022-11-22T20:16:29.031Z,97664.38
2022-11-22T20:18:57.691Z,97659.03
2022-11-22T20:21:25.946Z,97660.06
2022-11-22T20:23:54.380Z,97660.09
2022-11-22T20:26:22.668Z,97661.31
2022-11-22T20:28:59.588Z,97656.66
2022-11-22T20:31:33.028Z,97661.59
2022-11-22T20:34:01.136Z,97654.84
2022-11-22T20:36:30.829Z,97649.31
2022-11-22T20:39:01.881Z,97660.03
2022-11-22T20:41:35.251Z,97654.63
2022-11-22T20:44:03.818Z,97652.25
2022-11-22T20:46:31.595Z,97654.50
2022-11-22T20:49:02.551Z,97660.97
2022-11-22T20:51:30.631Z,97650.69
2022-11-22T20:53:58.665Z,97656.13
2022-11-22T20:56:29.051Z,97649.53
2022-11-22T20:58:56.807Z,97659.25
2022-11-22T21:01:26.317Z,97659.88
2022-11-22T21:03:55.857Z,97664.44
2022-11-22T21:06:25.511Z,97666.91
2022-11-22T21:08:53.142Z,97663.50
2022-11-22T21:11:24.528Z,97656.47
2022-11-22T21:13:52.235Z,97661.75
2022-11-22T21:16:24.453Z,97652.13
2022-11-22T21:19:00.488Z,97667.00
2022-11-22T21:21:27.932Z,97667.81
2022-11-22T21:23:56.043Z,97670.44
2022-11-22T21:26:24.106Z,97667.06
2022-11-22T21:28:51.422Z,97660.19
2022-11-22T21:31:18.913Z,97663.56
2022-11-22T21:33:46.054Z,97664.47
2022-11-22T21:36:13.298Z,97668.75
2022-11-22T21:38:40.695Z,97666.94
2022-11-22T21:41:39.398Z,97673.09
2022-11-22T21:43:56.899Z,97671.34
2022-11-22T21:46:25.293Z,97671.38
2022-11-22T21:48:52.440Z,97653.78
2022-11-22T21:51:19.840Z,97668.69
2022-11-22T21:53:46.951Z,97651.56
2022-11-22T21:56:14.059Z,97656.56
2022-11-22T21:58:41.423Z,97659.25
2022-11-22T22:01:13.903Z,97660.13
2022-11-22T22:03:41.810Z,97664.38
2022-11-22T22:06:09.010Z,97649.56
2022-11-22T22:08:36.461Z,97660.66
2022-11-22T22:11:05.462Z,97663.50
2022-11-22T22:13:34.427Z,97654.94
2022-11-22T22:16:13.002Z,97656.41
2022-11-22T22:18:40.416Z,97667.00
2022-11-22T22:21:08.995Z,97662.66
2022-11-22T22:23:39.745Z,97655.84
2022-11-22T22:26:08.006Z,97652.28
2022-11-22T22:28:36.036Z,97653.97
2022-11-22T22:31:13.564Z,97658.38
2022-11-22T22:33:41.264Z,97660.09
2022-11-22T22:36:08.856Z,97643.53
2022-11-22T22:38:36.022Z,97654.94
2022-11-22T22:41:04.009Z,97649.41
2022-11-22T22:43:31.879Z,97653.25
2022-11-22T22:46:06.235Z,97637.50
2022-11-22T22:48:34.378Z,97640.91
2022-11-22T22:51:32.787Z,97645.22
2022-11-22T22:54:00.866Z,97650.47
2022-11-22T22:56:28.605Z,97643.81
2022-11-22T22:58:56.008Z,97649.28
2022-11-22T23:01:24.557Z,97646.50
2022-11-22T23:03:53.241Z,97660.00
2022-11-22T23:06:20.749Z,97654.59
2022-11-22T23:08:49.812Z,97654.19
2022-11-22T23:11:17.945Z,97649.03
2022-11-22T23:13:45.088Z,97649.59
2022-11-22T23:16:12.997Z,97640.72
2022-11-22T23:18:40.790Z,97644.25
2022-11-22T23:21:08.258Z,97654.59
2022-11-22T23:23:35.676Z,97640.78
2022-11-22T23:26:06.768Z,97644.06
2022-11-22T23:28:33.887Z,97645.03
2022-11-22T23:31:10.015Z,97640.94
2022-11-22T23:33:37.673Z,97645.94
2022-11-22T23:36:05.589Z,97651.13
2022-11-22T23:38:32.831Z,97643.25
2022-11-22T23:40:59.946Z,97646.31
2022-11-22T23:43:27.686Z,97649.84
2022-11-22T23:45:54.825Z,97652.44
2022-11-22T23:48:22.011Z,97636.63
2022-11-22T23:50:49.395Z,97640.22
2022-11-22T23:53:16.531Z,97630.56
2022-11-22T23:55:43.626Z,97639.00
2022-11-22T23:58:11.045Z,97641.09
